Time;durP1;ratioP1;P1;durP2;ratioP2;P2;SDS_P1;SDS_P2;PMS_P1;PMS_P2;Temp;Humidity;BMP_temperature;BMP_pressure;BME280_temperature;BME280_humidity;BME280_pressure;Samples;Min_cycle;Max_cycle;Signal;HPM_P1;HPM_P2
2022/01/07 00:00:23;;;;;;;6.17;3.20;;;-0.10;99.90;;;0.60;100.00;-19747.34;5013047;28;20318;-60
2022/01/07 00:02:55;;;;;;;5.97;3.10;;;-0.10;99.90;;;0.40;100.00;-19740.34;5013752;28;20241;-59
2022/01/07 00:05:26;;;;;;;5.43;3.10;;;-0.20;99.90;;;0.38;100.00;-19739.81;5013664;28;20243;-59
2022/01/07 00:07:55;;;;;;;5.03;3.03;;;-0.20;99.90;;;0.27;100.00;-19735.88;5012921;28;20308;-59
2022/01/07 00:10:24;;;;;;;5.20;3.10;;;-0.20;99.90;;;0.53;100.00;-19744.78;5014213;28;20203;-60
2022/01/07 00:12:52;;;;;;;4.53;3.03;;;-0.20;99.90;;;0.31;100.00;-19737.44;5013344;28;20325;-59
2022/01/07 00:15:21;;;;;;;5.57;3.40;;;-0.20;99.90;;;0.22;100.00;-19734.19;5013286;28;20248;-59
2022/01/07 00:17:50;;;;;;;4.37;3.07;;;-0.30;99.90;;;0.41;100.00;-19740.66;5013419;28;20248;-58
2022/01/07 00:20:19;;;;;;;5.17;2.93;;;-0.30;99.90;;;0.40;100.00;-19740.34;5013398;28;20568;-58
2022/01/07 00:22:49;;;;;;;4.70;2.93;;;-0.20;99.90;;;0.30;100.00;-19736.91;5013198;28;20304;-59
2022/01/07 00:25:20;;;;;;;4.60;3.23;;;-0.30;99.90;;;0.46;100.00;-19742.56;5013991;28;20271;-60
2022/01/07 00:27:49;;;;;;;5.70;3.30;;;-0.20;99.90;;;0.50;100.00;-19743.75;5012933;28;20243;-59
2022/01/07 00:30:20;;;;;;;5.63;3.13;;;-0.20;99.90;;;0.51;100.00;-19744.09;5012455;28;20317;-60
2022/01/07 00:32:48;;;;;;;4.80;3.20;;;-0.20;99.90;;;0.53;100.00;-19744.78;5012349;28;20806;-59
2022/01/07 00:35:19;;;;;;;6.53;3.43;;;-0.20;99.90;;;0.73;100.00;-19751.78;5012558;28;20252;-60
2022/01/07 00:37:50;;;;;;;5.70;3.00;;;-0.10;99.90;;;0.66;100.00;-19749.22;5013151;28;20269;-59
2022/01/07 00:40:24;;;;;;;4.67;3.07;;;-0.10;99.90;;;0.70;100.00;-19750.75;5013014;28;20244;-60
2022/01/07 00:42:54;;;;;;;6.63;3.40;;;-0.10;99.90;;;0.86;100.00;-19756.06;5012332;28;20768;-59
2022/01/07 00:45:24;;;;;;;6.93;3.10;;;-0.10;99.90;;;0.68;100.00;-19749.91;5012311;28;20989;-59
2022/01/07 00:47:55;;;;;;;3.90;2.87;;;-0.10;99.90;;;0.77;100.00;-19752.97;5012839;28;20692;-59
2022/01/07 00:50:26;;;;;;;4.37;2.90;;;0.00;99.90;;;0.78;100.00;-19753.31;5013031;28;20254;-59
2022/01/07 00:52:54;;;;;;;4.77;2.80;;;0.00;99.90;;;0.68;100.00;-19749.91;5012822;28;20766;-60
2022/01/07 00:55:25;;;;;;;7.87;2.90;;;0.00;99.90;;;0.50;100.00;-19743.91;5013236;28;20230;-59
2022/01/07 00:57:54;;;;;;;5.10;2.97;;;0.00;99.90;;;0.69;100.00;-19750.41;5012987;28;20705;-59
2022/01/07 01:00:27;;;;;;;4.00;2.57;;;0.00;99.90;;;0.58;100.00;-19746.66;5012165;28;20310;-60
2022/01/07 01:02:56;;;;;;;3.93;2.60;;;-0.10;99.90;;;0.72;100.00;-19751.44;5011402;28;20244;-59
2022/01/07 01:05:25;;;;;;;6.70;3.00;;;-0.10;99.90;;;0.56;100.00;-19745.97;5012221;28;20229;-59
2022/01/07 01:07:53;;;;;;;4.87;2.67;;;-0.10;99.90;;;0.25;100.00;-19735.38;5011980;28;20719;-59
2022/01/07 01:10:25;;;;;;;7.27;3.33;;;-0.20;99.90;;;0.36;100.00;-19738.97;5012909;28;20294;-58
2022/01/07 01:12:55;;;;;;;4.33;2.70;;;-0.20;99.90;;;0.22;100.00;-19734.19;5011596;28;20228;-59
2022/01/07 01:15:26;;;;;;;5.97;3.10;;;-0.20;99.90;;;0.44;100.00;-19741.69;5012348;28;20231;-59
2022/01/07 01:17:57;;;;;;;6.03;2.80;;;-0.30;99.90;;;0.36;100.00;-19739.13;5012537;28;20738;-59
2022/01/07 01:20:25;;;;;;;5.13;2.27;;;-0.20;99.90;;;0.43;100.00;-19741.34;5012498;28;20228;-59
2022/01/07 01:22:53;;;;;;;6.50;2.77;;;-0.20;99.90;;;0.34;100.00;-19738.28;5012152;28;20318;-58
2022/01/07 01:25:21;;;;;;;4.87;2.60;;;-0.20;99.90;;;0.80;100.00;-19754.19;5012999;28;20290;-59
2022/01/07 01:27:51;;;;;;;7.27;2.73;;;-0.10;99.90;;;0.79;100.00;-19753.84;5012314;28;20236;-60
2022/01/07 01:30:19;;;;;;;3.67;2.50;;;0.00;99.90;;;0.69;100.00;-19750.25;5011979;28;20790;-59
2022/01/07 01:32:49;;;;;;;6.30;2.83;;;0.00;99.90;;;0.79;100.00;-19753.66;5012188;28;20313;-59
2022/01/07 01:35:18;;;;;;;5.43;2.60;;;0.00;99.90;;;0.53;100.00;-19744.94;5012219;28;20249;-60
2022/01/07 01:37:48;;;;;;;5.77;3.10;;;-0.10;99.90;;;0.65;100.00;-19748.88;5012015;28;20716;-60
2022/01/07 01:40:18;;;;;;;4.53;2.70;;;0.00;99.90;;;0.50;100.00;-19743.75;5012456;28;20319;-60
2022/01/07 01:42:47;;;;;;;5.00;2.53;;;-0.10;99.90;;;0.54;100.00;-19745.28;5011960;28;20228;-60
2022/01/07 01:45:18;;;;;;;4.60;2.77;;;-0.10;99.90;;;0.60;100.00;-19747.16;5011893;28;20564;-59
2022/01/07 01:47:47;;;;;;;4.90;2.73;;;-0.10;99.90;;;0.64;100.00;-19748.72;5012151;28;20726;-59
2022/01/07 01:50:15;;;;;;;3.77;2.53;;;-0.10;99.90;;;0.60;100.00;-19747.16;5011591;28;20229;-60
2022/01/07 01:52:52;;;;;;;4.67;2.73;;;-0.20;99.90;;;0.64;100.00;-19748.72;5012137;28;20200;-61
2022/01/07 01:55:23;;;;;;;5.70;3.00;;;-0.20;99.90;;;0.44;100.00;-19741.88;5012238;28;20313;-60
2022/01/07 01:57:52;;;;;;;5.57;2.87;;;-0.20;99.90;;;0.61;100.00;-19747.50;5011761;28;20322;-61
2022/01/07 02:00:24;;;;;;;4.00;2.57;;;-0.10;99.90;;;0.62;100.00;-19748.03;5002624;28;20622;-60
2022/01/07 02:02:52;;;;;;;5.63;2.83;;;-0.10;99.90;;;0.63;100.00;-19748.38;4992227;28;20799;-59
2022/01/07 02:05:22;;;;;;;4.17;2.90;;;-0.10;99.90;;;0.64;100.00;-19748.53;4992115;28;20225;-60
2022/01/07 02:07:50;;;;;;;5.57;3.10;;;-0.10;99.90;;;0.70;100.00;-19750.59;4992252;28;20286;-58
2022/01/07 02:10:19;;;;;;;7.80;3.67;;;-0.10;99.90;;;0.63;100.00;-19748.38;4992747;28;20291;-59
2022/01/07 02:12:48;;;;;;;4.23;2.83;;;-0.10;99.90;;;0.48;100.00;-19743.25;4991751;28;20224;-59
2022/01/07 02:15:18;;;;;;;6.73;3.40;;;-0.20;99.90;;;0.65;100.00;-19749.06;4991746;28;20224;-59
2022/01/07 02:17:50;;;;;;;4.47;2.53;;;-0.10;99.90;;;0.45;100.00;-19742.03;4991858;28;20239;-60
2022/01/07 02:20:22;;;;;;;4.57;2.80;;;-0.20;99.90;;;0.37;100.00;-19739.31;5010221;28;20234;-59
2022/01/07 02:22:50;;;;;;;4.10;2.87;;;-0.20;99.90;;;0.45;100.00;-19742.22;5011245;28;20304;-59
2022/01/07 02:25:20;;;;;;;5.40;2.97;;;-0.30;99.90;;;0.62;100.00;-19747.84;5015351;28;20214;-59
2022/01/07 02:27:50;;;;;;;4.73;2.87;;;-0.20;99.90;;;0.53;100.00;-19744.94;5014982;28;20262;-59
2022/01/07 02:30:21;;;;;;;5.50;2.80;;;-0.20;99.90;;;0.49;100.00;-19743.41;5015340;28;20230;-60
2022/01/07 02:32:50;;;;;;;4.63;2.90;;;-0.30;99.90;;;0.58;100.00;-19746.47;5015496;28;20227;-59
2022/01/07 02:35:24;;;;;;;4.37;2.60;;;-0.20;99.90;;;0.60;100.00;-19747.34;5015165;28;20230;-60
2022/01/07 02:37:53;;;;;;;6.57;3.10;;;-0.20;99.90;;;0.79;100.00;-19753.66;5015430;28;20231;-59
2022/01/07 02:40:22;;;;;;;5.00;3.07;;;-0.10;99.90;;;0.82;100.00;-19754.88;5015924;28;20318;-60
2022/01/07 02:42:50;;;;;;;6.83;3.80;;;0.00;99.90;;;0.57;100.00;-19746.16;5014910;28;20552;-60
2022/01/07 02:45:18;;;;;;;5.03;3.20;;;0.00;99.90;;;0.66;100.00;-19749.38;5014934;28;20251;-59
2022/01/07 02:47:53;;;;;;;6.43;2.97;;;-0.10;99.90;;;0.76;100.00;-19752.81;5015141;28;20234;-59
2022/01/07 02:50:27;;;;;;;5.63;3.00;;;-0.10;99.90;;;0.85;100.00;-19755.88;5014195;28;20294;-59
2022/01/07 02:52:57;;;;;;;4.60;3.03;;;0.00;99.90;;;0.71;100.00;-19751.09;5015057;28;20639;-59
2022/01/07 02:55:27;;;;;;;5.23;3.47;;;-0.10;99.90;;;0.58;100.00;-19746.47;5015196;28;20329;-59
2022/01/07 02:57:55;;;;;;;6.00;2.93;;;-0.10;99.90;;;0.45;100.00;-19742.22;5014373;28;20336;-62
2022/01/07 03:00:25;;;;;;;6.93;3.50;;;-0.20;99.90;;;0.36;100.00;-19738.97;5014465;28;20220;-59
2022/01/07 03:02:55;;;;;;;7.23;3.40;;;-0.20;99.90;;;0.41;100.00;-19740.66;5014931;28;20250;-59
2022/01/07 03:05:25;;;;;;;5.67;3.23;;;-0.20;99.90;;;0.78;100.00;-19753.31;5014693;28;20587;-58
2022/01/07 03:07:54;;;;;;;5.70;3.60;;;-0.10;99.90;;;0.47;100.00;-19742.91;5014435;28;20254;-60
2022/01/07 03:10:26;;;;;;;5.00;3.00;;;-0.20;99.90;;;0.61;100.00;-19747.69;5014633;28;20199;-59
2022/01/07 03:12:55;;;;;;;6.07;3.40;;;-0.10;99.90;;;0.54;100.00;-19745.28;5014331;28;20241;-60
2022/01/07 03:15:24;;;;;;;4.80;3.27;;;-0.10;99.90;;;0.68;100.00;-19749.91;5014550;28;20255;-59
2022/01/07 03:17:52;;;;;;;9.40;3.37;;;-0.10;99.90;;;0.81;100.00;-19754.53;5014521;28;20769;-60
2022/01/07 03:20:22;;;;;;;5.67;3.90;;;0.00;99.90;;;0.54;100.00;-19745.28;5014487;28;20315;-60
2022/01/07 03:22:52;;;;;;;5.87;3.50;;;0.00;99.90;;;0.78;100.00;-19753.31;5014306;28;20303;-60
2022/01/07 03:25:20;;;;;;;6.40;3.63;;;0.00;99.90;;;0.78;100.00;-19753.50;5015024;28;20746;-58
2022/01/07 03:27:48;;;;;;;5.17;3.50;;;0.10;99.90;;;0.80;100.00;-19754.19;5014191;28;20611;-60
2022/01/07 03:30:19;;;;;;;3.70;3.13;;;0.10;99.90;;;0.76;100.00;-19752.81;5014290;28;20255;-59
2022/01/07 03:32:48;;;;;;;4.87;3.60;;;0.10;99.90;;;0.69;100.00;-19750.41;5014223;28;20281;-59
2022/01/07 03:35:17;;;;;;;6.87;3.80;;;0.10;99.90;;;0.68;100.00;-19750.06;5013330;28;20261;-60
2022/01/07 03:37:48;;;;;;;7.10;3.47;;;0.10;99.90;;;0.66;100.00;-19749.38;5014503;28;20204;-58
2022/01/07 03:40:20;;;;;;;5.80;2.93;;;0.10;99.90;;;0.95;100.00;-19759.13;5015000;28;20272;-59
2022/01/07 03:42:50;;;;;;;8.43;3.87;;;0.20;99.90;;;0.75;100.00;-19752.28;5014013;28;20253;-60
2022/01/07 03:45:20;;;;;;;6.17;3.73;;;0.20;99.90;;;0.75;100.00;-19752.28;5014168;28;20658;-60
2022/01/07 03:47:49;;;;;;;7.20;3.50;;;0.10;99.90;;;0.88;100.00;-19756.91;5014099;28;20258;-60
2022/01/07 03:50:21;;;;;;;6.93;3.23;;;0.20;99.90;;;0.83;100.00;-19755.03;5014025;28;20277;-60
2022/01/07 03:52:50;;;;;;;5.23;3.70;;;0.20;99.90;;;0.94;100.00;-19758.78;5013582;28;20240;-60
2022/01/07 03:55:25;;;;;;;9.37;3.73;;;0.20;99.90;;;0.99;100.00;-19760.69;5014288;28;20735;-59
2022/01/07 03:57:54;;;;;;;8.03;3.30;;;0.20;99.90;;;0.98;100.00;-19760.16;5013569;28;20337;-58
2022/01/07 04:00:26;;;;;;;6.37;3.50;;;0.20;99.90;;;0.94;100.00;-19758.97;5013844;28;20393;-60
2022/01/07 04:02:55;;;;;;;5.77;3.50;;;0.30;99.90;;;1.04;100.00;-19762.38;5013838;28;20237;-60
2022/01/07 04:05:23;;;;;;;6.83;3.30;;;0.30;99.90;;;1.02;100.00;-19761.53;5014201;28;20269;-62
2022/01/07 04:07:52;;;;;;;8.37;3.63;;;0.30;99.90;;;0.99;100.00;-19760.69;5013636;28;20702;-60
2022/01/07 04:10:22;;;;;;;7.70;3.60;;;0.30;99.90;;;1.10;100.00;-19764.25;5014291;28;20308;-59
2022/01/07 04:12:51;;;;;;;10.13;3.93;;;0.40;99.90;;;1.18;100.00;-19767.00;5013364;28;20224;-60
2022/01/07 04:15:22;;;;;;;6.83;3.90;;;0.40;99.90;;;1.14;100.00;-19765.63;5013439;28;20238;-59
2022/01/07 04:17:53;;;;;;;9.30;3.53;;;0.40;99.90;;;0.99;100.00;-19760.50;5013566;28;20226;-59
2022/01/07 04:20:25;;;;;;;5.30;3.30;;;0.40;99.90;;;1.01;100.00;-19761.19;5013482;28;20312;-60
2022/01/07 04:22:53;;;;;;;6.90;3.43;;;0.40;99.90;;;0.92;100.00;-19758.13;5013439;28;20254;-60
2022/01/07 04:25:24;;;;;;;8.97;3.23;;;0.40;99.90;;;0.91;100.00;-19757.78;5013980;28;20213;-60
2022/01/07 04:27:57;;;;;;;7.70;3.60;;;0.40;99.90;;;0.94;100.00;-19758.78;5013204;28;20572;-59
2022/01/07 04:30:29;;;;;;;8.97;3.60;;;0.40;99.90;;;1.16;100.00;-19766.50;5013135;28;20316;-59
2022/01/07 04:33:01;;;;;;;10.90;4.63;;;0.40;99.90;;;1.21;100.00;-19768.19;5012845;28;20770;-60
2022/01/07 04:35:32;;;;;;;8.50;4.13;;;0.50;99.90;;;1.16;100.00;-19766.31;5012956;28;20230;-60
2022/01/07 04:38:00;;;;;;;7.50;3.57;;;0.50;99.90;;;1.19;100.00;-19767.34;5012987;28;20233;-59
2022/01/07 04:40:29;;;;;;;7.50;3.43;;;0.50;99.90;;;1.33;100.00;-19771.97;5013579;28;20234;-60
2022/01/07 04:42:57;;;;;;;6.87;3.43;;;0.50;99.90;;;1.30;100.00;-19770.94;5013090;28;20235;-58
2022/01/07 04:45:25;;;;;;;7.10;3.80;;;0.50;99.90;;;1.37;100.00;-19773.50;5012895;28;20677;-59
2022/01/07 04:47:54;;;;;;;8.33;3.40;;;0.60;99.90;;;1.36;100.00;-19773.16;5011731;28;20230;-58
2022/01/07 04:50:24;;;;;;;5.03;3.17;;;0.60;99.90;;;1.21;100.00;-19768.19;5012323;28;20926;-59
2022/01/07 04:52:53;;;;;;;6.23;3.93;;;0.60;99.90;;;1.20;100.00;-19767.69;5013033;28;20229;-59
2022/01/07 04:55:25;;;;;;;7.80;4.10;;;0.50;99.90;;;1.06;100.00;-19763.06;5012928;28;20325;-59
2022/01/07 04:57:55;;;;;;;6.57;3.90;;;0.50;99.90;;;1.38;100.00;-19773.84;5012420;28;20248;-59
2022/01/07 05:00:24;;;;;;;6.50;3.77;;;0.50;99.90;;;1.24;100.00;-19769.06;5012440;28;20225;-60
2022/01/07 05:02:53;;;;;;;7.53;3.63;;;0.50;99.90;;;1.38;100.00;-19773.66;5012433;28;20227;-60
2022/01/07 05:05:22;;;;;;;6.00;4.10;;;0.60;99.90;;;1.43;100.00;-19775.38;5011635;28;20233;-60
2022/01/07 05:07:50;;;;;;;7.00;3.80;;;0.60;99.90;;;1.33;100.00;-19771.97;5011354;28;20283;-60
2022/01/07 05:10:18;;;;;;;7.40;4.47;;;0.60;99.90;;;1.10;100.00;-19764.25;5012489;28;20202;-59
2022/01/07 05:12:47;;;;;;;5.90;3.47;;;0.60;99.90;;;1.30;100.00;-19770.94;5012313;28;20279;-59
2022/01/07 05:15:18;;;;;;;8.47;4.00;;;0.60;99.90;;;1.46;100.00;-19776.56;5012420;28;20228;-59
2022/01/07 05:17:47;;;;;;;6.10;3.90;;;0.60;99.90;;;1.21;100.00;-19768.19;5012532;28;20333;-60
2022/01/07 05:20:17;;;;;;;6.70;3.57;;;0.60;99.90;;;1.29;100.00;-19770.59;5012120;28;20314;-59
2022/01/07 05:22:46;;;;;;;7.07;3.40;;;0.60;99.90;;;1.38;100.00;-19773.84;5012120;28;20219;-60
2022/01/07 05:25:16;;;;;;;8.87;4.37;;;0.70;99.90;;;1.54;100.00;-19779.16;5012695;28;20230;-60
2022/01/07 05:27:44;;;;;;;5.73;3.87;;;0.70;99.90;;;1.61;100.00;-19781.53;5012163;28;20310;-59
2022/01/07 05:30:16;;;;;;;8.97;4.33;;;0.70;99.90;;;1.42;100.00;-19775.03;5012187;28;20277;-59
2022/01/07 05:32:44;;;;;;;5.03;3.60;;;0.80;99.90;;;1.33;100.00;-19772.13;5012252;28;20231;-59
2022/01/07 05:35:12;;;;;;;7.67;4.00;;;0.70;99.90;;;1.47;100.00;-19776.75;5012063;28;20240;-57
2022/01/07 05:37:40;;;;;;;6.27;3.63;;;0.80;99.90;;;1.60;100.00;-19781.19;5011964;28;20302;-60
2022/01/07 05:40:10;;;;;;;8.10;3.47;;;0.80;99.90;;;1.86;100.00;-19790.09;5012605;28;20226;-60
2022/01/07 05:42:39;;;;;;;8.00;3.40;;;0.90;99.90;;;1.59;100.00;-19780.84;5011892;28;20695;-59
2022/01/07 05:45:08;;;;;;;8.30;3.57;;;0.90;99.90;;;1.70;100.00;-19784.59;5011455;28;20273;-59
2022/01/07 05:47:37;;;;;;;8.00;3.63;;;0.90;99.90;;;1.63;100.00;-19782.38;5011630;28;20230;-59
2022/01/07 05:50:07;;;;;;;6.70;4.10;;;0.90;99.90;;;1.66;100.00;-19783.41;5011785;28;20230;-58
2022/01/07 05:52:36;;;;;;;6.47;3.80;;;0.90;99.90;;;1.88;100.00;-19790.94;5010688;28;20203;-60
2022/01/07 05:55:06;;;;;;;5.97;4.10;;;1.00;99.90;;;1.89;100.00;-19791.09;5009704;28;20361;-59
2022/01/07 05:57:35;;;;;;;9.13;4.43;;;1.10;99.90;;;1.77;100.00;-19787.19;5011796;28;20317;-59
2022/01/07 06:00:08;;;;;;;8.47;4.87;;;1.10;99.90;;;1.84;100.00;-19789.56;5011599;28;20310;-58
2022/01/07 06:02:38;;;;;;;11.47;5.30;;;1.10;99.90;;;1.81;100.00;-19788.53;5011783;28;20288;-59
2022/01/07 06:05:07;;;;;;;8.67;4.27;;;1.10;99.90;;;1.79;100.00;-19787.69;5012039;28;20317;-60
2022/01/07 06:07:35;;;;;;;7.93;4.30;;;1.10;99.90;;;1.71;100.00;-19784.97;5004604;28;20278;-60
2022/01/07 06:10:04;;;;;;;5.67;4.23;;;1.10;99.90;;;1.92;100.00;-19792.31;4992961;28;20267;-58
2022/01/07 06:12:33;;;;;;;11.23;4.60;;;1.20;99.90;;;1.98;100.00;-19794.34;4991883;28;20255;-59
2022/01/07 06:15:01;;;;;;;9.70;4.23;;;1.20;99.90;;;1.77;100.00;-19787.19;5009103;28;20226;-59
2022/01/07 06:17:29;;;;;;;8.67;5.13;;;1.20;99.90;;;1.87;100.00;-19790.44;5011534;28;20257;-58
2022/01/07 06:19:58;;;;;;;11.70;4.73;;;1.20;99.90;;;1.84;100.00;-19789.56;5012038;28;20308;-59
2022/01/07 06:22:26;;;;;;;9.60;4.60;;;1.20;99.90;;;2.00;100.00;-19794.88;5011737;28;20229;-59
2022/01/07 06:24:55;;;;;;;10.07;4.80;;;1.20;99.90;;;1.95;100.00;-19793.16;5011453;28;20226;-59
2022/01/07 06:27:23;;;;;;;9.03;4.80;;;1.30;99.90;;;2.03;100.00;-19795.91;5011547;28;20254;-59
2022/01/07 06:29:51;;;;;;;10.50;5.77;;;1.30;99.90;;;2.09;100.00;-19797.94;5011546;28;20262;-59
2022/01/07 06:32:19;;;;;;;9.20;4.90;;;1.40;99.90;;;2.16;100.00;-19800.50;5011335;28;20635;-62
2022/01/07 06:34:47;;;;;;;10.63;5.20;;;1.40;99.90;;;2.13;100.00;-19799.47;5011294;28;20209;-59
2022/01/07 06:37:17;;;;;;;9.77;5.13;;;1.40;99.90;;;2.16;100.00;-19800.50;5011672;28;20292;-60
2022/01/07 06:39:45;;;;;;;9.30;5.13;;;1.40;99.90;;;2.16;100.00;-19800.50;5011362;28;20226;-57
2022/01/07 06:42:13;;;;;;;11.53;5.07;;;1.40;99.90;;;2.12;100.00;-19799.16;5010886;28;20239;-59
2022/01/07 06:44:41;;;;;;;7.93;4.73;;;1.40;99.90;;;2.15;100.00;-19800.00;5011279;28;20347;-59
2022/01/07 06:47:09;;;;;;;7.03;4.87;;;1.40;99.90;;;2.21;100.00;-19802.06;5011348;28;20231;-57
2022/01/07 06:49:38;;;;;;;9.80;4.80;;;1.50;99.90;;;2.24;100.00;-19803.25;5011220;28;20222;-59
2022/01/07 06:52:08;;;;;;;7.53;4.97;;;1.50;99.90;;;2.30;100.00;-19805.13;5011714;28;20322;-58
2022/01/07 06:54:38;;;;;;;9.50;5.87;;;1.50;99.90;;;2.22;100.00;-19802.38;5010566;28;20744;-59
2022/01/07 06:57:06;;;;;;;10.60;5.30;;;1.50;99.90;;;2.09;100.00;-19798.13;5010422;28;20231;-59
2022/01/07 06:59:35;;;;;;;10.37;5.43;;;1.40;99.90;;;1.93;100.00;-19792.66;5010745;28;20280;-60
2022/01/07 07:02:04;;;;;;;10.07;5.20;;;1.40;99.90;;;2.11;100.00;-19798.63;5011397;28;20222;-60
2022/01/07 07:04:33;;;;;;;8.53;5.17;;;1.40;99.90;;;2.19;100.00;-19801.38;5011407;28;20234;-59
2022/01/07 07:07:01;;;;;;;10.47;5.03;;;1.50;99.90;;;2.15;100.00;-19800.00;5010906;28;20671;-59
2022/01/07 07:09:29;;;;;;;12.87;4.90;;;1.40;99.90;;;2.17;100.00;-19800.69;5011350;28;20324;-60
2022/01/07 07:11:58;;;;;;;9.37;4.73;;;1.50;99.90;;;2.27;100.00;-19804.28;5014422;28;20281;-58
2022/01/07 07:14:26;;;;;;;9.33;5.60;;;1.50;99.90;;;2.24;100.00;-19803.25;5014785;28;20231;-59
2022/01/07 07:16:54;;;;;;;11.50;4.93;;;1.50;99.90;;;2.18;100.00;-19801.03;5014532;28;20682;-59
2022/01/07 07:19:23;;;;;;;9.23;5.07;;;1.50;99.90;;;2.25;100.00;-19803.41;5015190;28;20681;-59
2022/01/07 07:21:51;;;;;;;9.97;5.47;;;1.60;99.90;;;2.35;100.00;-19807.00;5014026;28;20338;-59
2022/01/07 07:24:19;;;;;;;7.30;4.90;;;1.60;99.90;;;2.28;100.00;-19804.44;5015005;28;20237;-59
2022/01/07 07:26:48;;;;;;;8.27;4.67;;;1.50;99.90;;;2.30;100.00;-19805.13;5014528;28;20262;-61
2022/01/07 07:29:17;;;;;;;7.63;4.77;;;1.60;99.90;;;2.20;100.00;-19801.88;5014713;28;20663;-59
2022/01/07 07:31:49;;;;;;;9.07;4.90;;;1.60;99.90;;;2.33;100.00;-19806.31;5014191;28;20750;-59
2022/01/07 07:34:33;;;;;;;11.20;5.17;;;1.50;99.90;;;2.34;100.00;-19806.50;5014906;28;20218;-59
2022/01/07 07:37:02;;;;;;;9.73;4.83;;;1.60;99.90;;;2.41;100.00;-19808.88;5012129;28;20679;-59
2022/01/07 07:39:30;;;;;;;8.27;5.03;;;1.60;99.90;;;2.43;100.00;-19809.56;4994865;28;20246;-59
2022/01/07 07:41:59;;;;;;;8.93;5.23;;;1.60;99.90;;;2.46;100.00;-19810.78;5006315;28;20259;-59
2022/01/07 07:44:28;;;;;;;9.10;5.10;;;1.70;99.90;;;2.39;100.00;-19808.19;5014092;28;20261;-59
2022/01/07 07:46:57;;;;;;;7.90;4.90;;;1.70;99.90;;;2.62;100.00;-19815.91;5013904;28;20218;-59
2022/01/07 07:49:25;;;;;;;8.13;4.70;;;1.70;99.90;;;2.60;100.00;-19815.22;5014727;28;20682;-60
2022/01/07 07:51:54;;;;;;;8.37;4.90;;;1.80;99.90;;;2.59;100.00;-19815.03;5013459;28;20269;-59
2022/01/07 07:54:22;;;;;;;12.17;5.10;;;1.80;99.90;;;2.61;100.00;-19815.72;5013916;28;20242;-58
2022/01/07 07:56:50;;;;;;;10.07;5.23;;;1.90;99.90;;;2.61;100.00;-19815.72;5013999;28;20226;-60
2022/01/07 07:59:18;;;;;;;16.60;8.67;;;1.80;99.90;;;2.73;100.00;-19819.66;5013383;28;20737;-58
2022/01/07 08:01:47;;;;;;;9.13;5.20;;;1.90;99.90;;;2.70;100.00;-19818.63;5012973;28;20229;-59
2022/01/07 08:04:19;;;;;;;12.93;5.30;;;1.90;99.90;;;2.82;100.00;-19822.72;5014229;28;20218;-60
2022/01/07 08:06:48;;;;;;;9.73;5.27;;;2.00;99.90;;;2.69;100.00;-19818.47;5013544;28;20229;-59
2022/01/07 08:09:16;;;;;;;9.90;5.47;;;1.90;99.90;;;2.73;100.00;-19819.66;5014084;28;20265;-59
2022/01/07 08:11:53;;;;;;;6.90;4.67;;;2.00;99.90;;;2.88;100.00;-19824.97;5013893;28;20709;-58
2022/01/07 08:17:09;;;;;;;11.77;4.63;;;2.10;99.90;;;2.77;100.00;-19821.03;5013569;28;20250;-58
2022/01/07 08:19:38;;;;;;;11.77;4.80;;;2.10;99.90;;;2.79;100.00;-19821.72;5013601;28;20297;-58
2022/01/07 08:22:08;;;;;;;12.27;5.27;;;2.10;99.90;;;2.85;100.00;-19823.94;5013233;28;20226;-59
2022/01/07 08:24:37;;;;;;;9.73;6.17;;;2.10;99.90;;;2.81;100.00;-19822.56;5012607;28;20242;-59
2022/01/07 08:27:06;;;;;;;10.63;5.60;;;2.10;99.90;;;2.84;100.00;-19823.41;5013540;28;20238;-60
2022/01/07 08:29:54;;;;;;;9.77;5.43;;;2.10;99.90;;;2.76;100.00;-19820.84;5013430;28;20325;-59
2022/01/07 08:35:24;;;;;;;9.17;5.20;;;2.10;99.90;;;2.90;100.00;-19825.47;5005948;28;20234;-60
2022/01/07 08:37:52;;;;;;;15.07;5.30;;;2.10;99.90;;;3.00;100.00;-19828.88;5005581;28;20309;-60
2022/01/07 08:40:21;;;;;;;9.47;5.40;;;2.20;99.90;;;2.91;100.00;-19825.81;5011353;28;20704;-60
2022/01/07 08:42:49;;;;;;;7.97;4.80;;;2.20;99.90;;;2.91;100.00;-19825.81;5012788;28;20277;-58
2022/01/07 08:45:17;;;;;;;9.13;5.20;;;2.10;99.90;;;3.03;100.00;-19830.09;5013101;28;20246;-60
2022/01/07 08:47:46;;;;;;;7.83;4.60;;;2.20;99.90;;;2.89;100.00;-19825.13;5012961;28;20647;-61
2022/01/07 08:50:15;;;;;;;9.73;4.83;;;2.20;99.90;;;2.94;100.00;-19826.84;5013104;28;20606;-60
2022/01/07 08:52:43;;;;;;;12.80;5.10;;;2.20;99.90;;;3.00;100.00;-19829.06;5012208;28;20840;-58
2022/01/07 08:55:12;;;;;;;10.20;5.30;;;2.20;99.90;;;3.02;100.00;-19829.56;5013079;28;20375;-59
2022/01/07 08:57:40;;;;;;;8.57;5.13;;;2.20;99.90;;;3.00;100.00;-19828.88;5012817;28;20648;-58
2022/01/07 09:00:10;;;;;;;7.87;4.83;;;2.20;99.90;;;3.15;100.00;-19834.19;5013018;28;20250;-58
2022/01/07 09:02:38;;;;;;;9.53;5.80;;;2.20;99.90;;;3.06;100.00;-19831.09;5012761;28;20258;-60
2022/01/07 09:05:09;;;;;;;10.27;5.50;;;2.20;99.90;;;3.00;100.00;-19828.88;5012788;28;20245;-59
2022/01/07 09:07:37;;;;;;;7.53;5.20;;;2.30;99.90;;;3.22;100.00;-19836.59;5005094;28;20207;-61
2022/01/07 09:10:06;;;;;;;11.17;5.17;;;2.40;99.90;;;3.25;100.00;-19837.59;4993717;28;20290;-58
2022/01/07 09:12:34;;;;;;;11.00;5.43;;;2.40;99.90;;;3.26;100.00;-19837.94;5011949;28;20265;-59
2022/01/07 09:15:03;;;;;;;8.67;5.37;;;2.40;99.90;;;3.08;100.00;-19831.63;5012637;28;20770;-59
2022/01/07 09:17:32;;;;;;;10.50;4.97;;;2.40;99.90;;;3.38;100.00;-19842.06;5012461;28;20316;-62
2022/01/07 09:20:01;;;;;;;9.00;4.70;;;2.50;99.90;;;3.37;100.00;-19841.53;5011907;28;20300;-58
2022/01/07 09:22:30;;;;;;;7.27;4.60;;;2.50;99.90;;;3.43;100.00;-19843.75;5012455;28;20228;-58
2022/01/07 09:24:58;;;;;;;7.77;5.07;;;2.50;99.90;;;3.41;100.00;-19842.91;5012319;28;20296;-58
2022/01/07 09:27:27;;;;;;;7.53;4.70;;;2.60;99.90;;;3.45;100.00;-19844.28;5012453;28;20306;-57
2022/01/07 09:29:55;;;;;;;12.00;5.50;;;2.60;99.90;;;3.59;100.00;-19849.06;5012021;28;20721;-58
2022/01/07 09:32:23;;;;;;;8.83;4.83;;;2.70;99.90;;;3.55;100.00;-19847.69;5012497;28;20263;-58
2022/01/07 09:34:52;;;;;;;10.47;5.77;;;2.70;99.90;;;3.40;100.00;-19842.72;5011711;28;20770;-59
2022/01/07 09:37:20;;;;;;;9.33;5.07;;;2.70;99.90;;;3.30;100.00;-19839.16;5012428;28;20205;-60
2022/01/07 09:39:49;;;;;;;8.13;4.57;;;2.60;99.90;;;3.29;100.00;-19838.97;5011807;28;20379;-60
2022/01/07 09:42:17;;;;;;;9.60;5.03;;;2.60;99.90;;;3.32;100.00;-19839.81;5012027;28;20228;-59
2022/01/07 09:44:45;;;;;;;7.90;4.60;;;2.50;99.90;;;3.35;100.00;-19841.03;5007397;28;20314;-59
2022/01/07 09:47:17;;;;;;;9.07;5.10;;;2.60;99.90;;;3.43;100.00;-19843.59;4991786;28;20227;-60
2022/01/07 09:49:45;;;;;;;6.93;4.17;;;2.60;99.90;;;3.59;100.00;-19849.06;4991487;28;20549;-59
2022/01/07 09:52:14;;;;;;;10.50;4.60;;;2.60;99.90;;;3.65;100.00;-19851.13;4992365;28;20199;-59
2022/01/07 09:54:43;;;;;;;8.70;5.07;;;2.70;99.90;;;3.78;100.00;-19855.38;4990777;28;20322;-60
2022/01/07 09:57:13;;;;;;;10.70;5.07;;;2.80;99.90;;;3.95;100.00;-19861.19;4991177;28;20609;-59
2022/01/07 09:59:41;;;;;;;9.73;4.47;;;2.90;99.90;;;3.99;100.00;-19862.72;4991888;28;20319;-58
2022/01/07 10:02:18;;;;;;;10.23;4.57;;;3.00;99.90;;;4.16;100.00;-19868.53;4991923;28;20769;-59
2022/01/07 10:04:46;;;;;;;10.07;5.10;;;3.20;99.90;;;3.99;100.00;-19862.72;4991909;28;20320;-59
2022/01/07 10:07:17;;;;;;;8.20;4.77;;;3.10;99.90;;;4.05;100.00;-19864.78;4995997;28;20732;-60
2022/01/07 10:10:01;;;;;;;7.57;4.53;;;3.20;99.90;;;4.15;100.00;-19868.22;5011508;28;20231;-59
2022/01/07 10:12:33;;;;;;;8.10;4.40;;;3.20;99.90;;;4.14;100.00;-19867.88;5011775;28;20260;-59
2022/01/07 10:15:16;;;;;;;7.60;4.43;;;3.30;99.90;;;4.34;100.00;-19874.69;5011752;28;20322;-59
2022/01/07 10:18:00;;;;;;;8.27;4.50;;;3.40;99.90;;;4.12;100.00;-19867.00;5011597;28;20226;-59
2022/01/07 10:20:32;;;;;;;8.07;4.60;;;3.30;99.90;;;4.19;100.00;-19869.41;5011581;28;20247;-60
2022/01/07 10:23:03;;;;;;;9.17;4.63;;;3.30;99.90;;;4.29;100.00;-19872.81;5011616;28;20230;-61
2022/01/07 10:25:34;;;;;;;8.97;4.90;;;3.40;99.90;;;4.16;100.00;-19868.53;5011165;28;20724;-59
2022/01/07 10:28:07;;;;;;;7.77;4.60;;;3.30;99.90;;;4.19;100.00;-19869.56;5012020;28;20190;-60
2022/01/07 10:30:38;;;;;;;9.20;4.47;;;3.30;99.90;;;4.27;100.00;-19872.31;5011517;28;20315;-59